createdAt,value
2022-12-01T00:01:23.068Z,94.10
2022-12-01T00:03:49.973Z,91.13
2022-12-01T00:06:20.310Z,104.00
2022-12-01T00:09:08.018Z,97.77
2022-12-01T00:11:36.662Z,113.80
2022-12-01T00:14:05.074Z,121.30
2022-12-01T00:16:32.763Z,107.30
2022-12-01T00:18:59.733Z,116.07
2022-12-01T00:21:27.531Z,96.33
2022-12-01T00:23:57.357Z,113.13
2022-12-01T00:26:25.794Z,120.70
2022-12-01T00:28:56.094Z,117.03
2022-12-01T00:31:23.632Z,124.87
2022-12-01T00:33:50.860Z,112.27
2022-12-01T00:36:17.802Z,118.33
2022-12-01T00:38:44.867Z,106.27
2022-12-01T00:41:11.852Z,116.93
2022-12-01T00:43:39.694Z,117.77
2022-12-01T00:46:07.562Z,125.33
2022-12-01T00:48:34.540Z,116.60
2022-12-01T00:51:01.419Z,125.20
2022-12-01T00:53:28.311Z,131.40
2022-12-01T00:55:55.325Z,127.97
2022-12-01T00:58:23.916Z,136.70
2022-12-01T01:00:58.636Z,139.73
2022-12-01T01:03:27.475Z,142.10
2022-12-01T01:05:54.349Z,146.00
2022-12-01T01:08:21.361Z,133.73
2022-12-01T01:10:48.941Z,158.80
2022-12-01T01:13:16.127Z,136.57
2022-12-01T01:15:42.995Z,146.93
2022-12-01T01:18:12.026Z,154.07
2022-12-01T01:20:38.996Z,148.13
2022-12-01T01:23:05.907Z,132.33
2022-12-01T01:25:33.607Z,148.47
2022-12-01T01:28:00.611Z,148.27
2022-12-01T01:30:27.560Z,129.93
2022-12-01T01:32:54.519Z,146.20
2022-12-01T01:35:21.456Z,131.63
2022-12-01T01:37:50.039Z,134.57
2022-12-01T01:40:17.266Z,128.67
2022-12-01T01:42:44.142Z,138.90
2022-12-01T01:45:25.155Z,143.43
2022-12-01T01:47:53.933Z,151.33
2022-12-01T01:50:25.421Z,147.37
2022-12-01T01:53:01.609Z,148.33
2022-12-01T01:55:30.638Z,130.23
2022-12-01T01:57:57.893Z,137.13
2022-12-01T02:00:24.877Z,124.17
2022-12-01T02:02:54.364Z,149.57
2022-12-01T02:05:24.214Z,161.73
2022-12-01T02:07:55.363Z,142.37
2022-12-01T02:10:31.600Z,149.53
2022-12-01T02:13:43.749Z,171.90
2022-12-01T02:16:26.317Z,159.57
2022-12-01T02:19:57.169Z,152.53
2022-12-01T02:23:04.141Z,162.03
2022-12-01T02:26:06.971Z,149.60
2022-12-01T02:29:16.227Z,152.07
2022-12-01T02:31:57.486Z,142.67
2022-12-01T02:34:43.351Z,131.17
2022-12-01T02:37:56.709Z,138.37
2022-12-01T02:40:49.991Z,163.50
2022-12-01T02:43:28.130Z,144.07
2022-12-01T02:46:34.133Z,135.33
2022-12-01T02:49:14.047Z,141.60
2022-12-01T02:51:46.624Z,126.77
2022-12-01T02:54:15.232Z,142.07
2022-12-01T02:56:45.620Z,131.00
2022-12-01T02:59:14.930Z,140.27
2022-12-01T03:02:17.990Z,137.83
2022-12-01T03:05:04.481Z,127.50
2022-12-01T03:08:13.850Z,145.93
2022-12-01T03:10:54.260Z,125.47
2022-12-01T03:13:43.133Z,130.47
2022-12-01T03:16:42.482Z,142.37
2022-12-01T03:19:40.379Z,125.23
2022-12-01T03:22:15.778Z,151.40
2022-12-01T03:24:47.196Z,121.90
2022-12-01T03:27:16.928Z,126.93
2022-12-01T03:29:48.817Z,130.50
2022-12-01T03:32:26.087Z,147.67
2022-12-01T03:35:09.095Z,135.77
2022-12-01T03:37:42.599Z,128.57
2022-12-01T03:40:17.698Z,131.03
2022-12-01T03:42:58.616Z,116.77
2022-12-01T03:46:22.308Z,133.70
2022-12-01T03:48:52.791Z,135.93
2022-12-01T03:51:44.803Z,114.90
2022-12-01T03:54:37.532Z,127.97
2022-12-01T03:57:09.879Z,118.70
2022-12-01T03:59:38.761Z,113.13
2022-12-01T04:02:07.942Z,127.17
2022-12-01T04:04:34.869Z,118.47
2022-12-01T04:07:01.770Z,119.63
2022-12-01T04:09:28.877Z,150.20
2022-12-01T04:12:14.289Z,105.30
2022-12-01T04:14:41.169Z,141.00
2022-12-01T04:17:08.408Z,142.43
2022-12-01T04:19:35.325Z,139.43
2022-12-01T04:22:02.212Z,158.67
2022-12-01T04:24:29.090Z,141.17
2022-12-01T04:26:55.961Z,160.53
2022-12-01T04:29:23.314Z,145.97
2022-12-01T04:31:50.307Z,150.90
2022-12-01T04:34:17.286Z,129.13
2022-12-01T04:36:44.187Z,136.80
2022-12-01T04:39:11.052Z,118.90
2022-12-01T04:41:37.915Z,130.77
2022-12-01T04:44:04.898Z,129.60
2022-12-01T04:46:31.858Z,122.93
2022-12-01T04:48:58.756Z,121.73
2022-12-01T04:51:25.631Z,130.17
2022-12-01T04:53:52.683Z,122.20
2022-12-01T04:56:19.772Z,131.67
2022-12-01T04:58:46.957Z,145.60
2022-12-01T05:01:16.808Z,132.70
2022-12-01T05:03:49.386Z,131.53
2022-12-01T05:06:23.418Z,118.53
2022-12-01T05:08:51.575Z,148.17
2022-12-01T05:11:18.959Z,152.63
2022-12-01T05:13:48.279Z,138.00
2022-12-01T05:16:18.845Z,134.23
2022-12-01T05:19:17.642Z,139.73
2022-12-01T05:21:46.366Z,129.10
2022-12-01T05:24:15.131Z,132.37
2022-12-01T05:26:43.393Z,122.90
2022-12-01T05:29:11.454Z,129.90
2022-12-01T05:31:39.794Z,129.30
2022-12-01T05:34:07.881Z,126.23
2022-12-01T05:36:34.763Z,117.97
2022-12-01T05:39:01.658Z,128.20
2022-12-01T05:41:28.533Z,130.43
2022-12-01T05:43:55.418Z,125.40
2022-12-01T05:46:22.346Z,145.33
2022-12-01T05:48:49.266Z,129.43
2022-12-01T05:51:17.818Z,127.20
2022-12-01T05:53:45.138Z,119.07
2022-12-01T05:56:12.175Z,125.00
2022-12-01T05:58:39.118Z,119.20
2022-12-01T06:01:06.090Z,112.40
2022-12-01T06:03:32.997Z,132.23
2022-12-01T06:05:59.964Z,138.60
2022-12-01T06:08:26.852Z,119.90
2022-12-01T06:10:53.723Z,131.10
2022-12-01T06:13:20.602Z,138.60
2022-12-01T06:16:00.255Z,140.80
2022-12-01T06:18:30.448Z,141.37
2022-12-01T06:20:57.509Z,142.20
2022-12-01T06:23:30.012Z,143.10
2022-12-01T06:25:57.486Z,127.97
2022-12-01T06:28:24.487Z,132.73
2022-12-01T06:30:51.427Z,113.30
2022-12-01T06:33:18.309Z,101.80
2022-12-01T06:35:45.228Z,117.63
2022-12-01T06:38:12.094Z,139.67
2022-12-01T06:40:38.971Z,120.00
2022-12-01T06:43:06.430Z,130.00
2022-12-01T06:45:33.279Z,140.93
2022-12-01T06:48:00.182Z,126.90
2022-12-01T06:50:27.607Z,123.03
2022-12-01T06:52:55.105Z,144.07
2022-12-01T06:55:22.233Z,136.43
2022-12-01T06:57:49.508Z,135.13
2022-12-01T07:00:17.124Z,135.43
2022-12-01T07:02:44.756Z,145.00
2022-12-01T07:05:11.734Z,156.23
2022-12-01T07:07:39.736Z,126.13
2022-12-01T07:10:09.002Z,139.47
2022-12-01T07:12:36.083Z,137.30
2022-12-01T07:15:04.483Z,135.50
2022-12-01T07:17:31.387Z,127.57
2022-12-01T07:19:58.650Z,137.00
2022-12-01T07:22:31.055Z,112.40
2022-12-01T07:24:59.400Z,124.53
2022-12-01T07:27:30.521Z,130.83
2022-12-01T07:29:57.380Z,120.23
2022-12-01T07:32:24.414Z,129.87
2022-12-01T07:34:51.291Z,125.43
2022-12-01T07:37:18.206Z,114.87
2022-12-01T07:39:45.076Z,121.33
2022-12-01T07:42:11.953Z,141.93
2022-12-01T07:44:38.810Z,122.83
2022-12-01T07:47:05.695Z,121.37
2022-12-01T07:49:33.285Z,131.00
2022-12-01T07:52:00.156Z,129.90
2022-12-01T07:54:27.101Z,115.27
2022-12-01T07:56:54.460Z,125.47
2022-12-01T07:59:21.369Z,133.70
2022-12-01T08:01:48.282Z,129.57
2022-12-01T08:04:15.250Z,135.30
2022-12-01T08:06:42.171Z,129.47
2022-12-01T08:09:09.081Z,115.23
2022-12-01T08:11:36.016Z,123.43
2022-12-01T08:14:02.936Z,109.70
2022-12-01T08:16:31.335Z,128.93
2022-12-01T08:18:58.314Z,114.10
2022-12-01T08:21:25.242Z,132.50
2022-12-01T08:23:57.030Z,112.23
2022-12-01T08:26:25.538Z,136.50
2022-12-01T08:28:52.576Z,112.20
2022-12-01T08:31:30.406Z,124.30
2022-12-01T08:33:57.818Z,104.97
2022-12-01T08:36:25.613Z,118.33
2022-12-01T08:38:55.450Z,113.80
2022-12-01T08:41:23.079Z,111.13
2022-12-01T08:43:57.985Z,113.80
2022-12-01T08:46:27.465Z,116.30
2022-12-01T08:48:57.211Z,122.47
2022-12-01T08:51:24.261Z,109.10
2022-12-01T08:53:51.475Z,113.80
2022-12-01T08:56:41.003Z,119.57
2022-12-01T08:59:08.487Z,113.23
2022-12-01T09:01:51.735Z,116.70
2022-12-01T09:04:21.973Z,94.90
2022-12-01T09:06:51.809Z,120.03
2022-12-01T09:09:26.277Z,115.70
2022-12-01T09:11:53.461Z,129.13
2022-12-01T09:14:21.946Z,111.40
2022-12-01T09:16:50.499Z,119.03
2022-12-01T09:19:23.960Z,115.77
2022-12-01T09:21:51.346Z,103.97
2022-12-01T09:24:18.287Z,127.87
2022-12-01T09:26:45.172Z,118.20
2022-12-01T09:29:14.736Z,115.97
2022-12-01T09:31:42.611Z,127.30
2022-12-01T09:34:15.035Z,118.23
2022-12-01T09:36:42.189Z,132.10
2022-12-01T09:39:14.266Z,117.17
2022-12-01T09:41:56.874Z,122.67
2022-12-01T09:44:41.272Z,124.67
2022-12-01T09:47:18.825Z,127.63
2022-12-01T09:50:02.406Z,115.70
2022-12-01T09:52:46.271Z,112.17
2022-12-01T09:55:16.523Z,130.43
2022-12-01T09:57:47.469Z,115.73
2022-12-01T10:00:34.240Z,122.37
2022-12-01T10:03:25.478Z,103.83
2022-12-01T10:06:29.190Z,122.97
2022-12-01T10:09:00.346Z,97.47
2022-12-01T10:11:41.177Z,109.27
2022-12-01T10:14:19.982Z,94.70
2022-12-01T10:17:16.259Z,97.97
2022-12-01T10:19:55.298Z,97.40
2022-12-01T10:23:03.002Z,98.20
2022-12-01T10:26:07.307Z,91.97
2022-12-01T10:29:12.816Z,96.57
2022-12-01T10:31:55.700Z,89.70
2022-12-01T10:34:32.438Z,107.03
2022-12-01T10:36:59.491Z,101.27
2022-12-01T10:39:40.048Z,91.67
2022-12-01T10:42:21.173Z,90.97
2022-12-01T10:44:49.515Z,99.07
2022-12-01T10:47:25.803Z,98.93
2022-12-01T10:49:53.246Z,82.40
2022-12-01T10:52:41.206Z,87.77
2022-12-01T10:55:29.588Z,82.10
2022-12-01T10:58:04.742Z,85.33
2022-12-01T11:03:33.045Z,84.77
2022-12-01T11:06:02.642Z,88.50
2022-12-01T11:08:46.991Z,85.93
2022-12-01T11:11:39.896Z,88.17
2022-12-01T11:14:23.355Z,90.03
2022-12-01T11:16:53.750Z,89.10
2022-12-01T11:19:34.169Z,85.67
2022-12-01T11:22:20.076Z,87.73
2022-12-01T11:24:58.578Z,88.63
2022-12-01T11:27:48.471Z,91.83
2022-12-01T11:30:26.070Z,83.83
2022-12-01T11:32:57.325Z,92.40
2022-12-01T11:35:31.970Z,89.13
2022-12-01T11:40:56.641Z,96.37
2022-12-01T11:43:36.482Z,93.10
2022-12-01T11:46:06.736Z,96.90
2022-12-01T11:48:36.224Z,97.50
2022-12-01T11:51:18.992Z,92.90
2022-12-01T11:53:46.225Z,77.87
2022-12-01T11:56:28.600Z,82.80
2022-12-01T11:59:02.147Z,72.70
2022-12-01T12:02:00.480Z,81.83
2022-12-01T12:05:13.589Z,84.87
2022-12-01T12:08:49.844Z,80.17
2022-12-01T12:11:24.506Z,82.93
2022-12-01T12:14:19.358Z,81.73
2022-12-01T12:17:10.778Z,74.00
2022-12-01T12:20:35.673Z,89.47
2022-12-01T12:23:48.630Z,80.77
2022-12-01T12:26:25.209Z,72.87
2022-12-01T12:29:01.420Z,78.90
2022-12-01T12:32:02.475Z,83.53
2022-12-01T12:34:52.373Z,68.83
2022-12-01T12:37:43.996Z,78.33
2022-12-01T12:40:52.530Z,79.47
2022-12-01T12:43:44.424Z,83.77
2022-12-01T12:46:26.067Z,70.17
2022-12-01T12:49:20.236Z,66.87
2022-12-01T12:52:13.881Z,81.10
2022-12-01T12:54:53.427Z,72.03
2022-12-01T12:57:51.705Z,72.40
2022-12-01T13:00:26.191Z,79.87
2022-12-01T13:03:29.219Z,73.37
2022-12-01T13:06:07.924Z,77.60
2022-12-01T13:08:46.375Z,78.00
2022-12-01T13:11:51.786Z,84.00
2022-12-01T13:15:15.420Z,78.67
2022-12-01T13:17:50.598Z,74.03
2022-12-01T13:20:23.878Z,67.17
2022-12-01T13:22:52.579Z,73.47
2022-12-01T13:25:40.648Z,68.30
2022-12-01T13:28:27.591Z,66.23
2022-12-01T13:31:05.812Z,71.97
2022-12-01T13:33:34.779Z,63.23
2022-12-01T13:39:06.431Z,72.20
2022-12-01T13:41:39.797Z,71.30
2022-12-01T13:44:22.094Z,68.87
2022-12-01T13:46:48.966Z,66.80
2022-12-01T13:49:39.655Z,67.43
2022-12-01T13:52:21.757Z,60.20
2022-12-01T13:55:09.606Z,76.60
2022-12-01T13:57:47.895Z,62.83
2022-12-01T14:00:24.031Z,71.07
2022-12-01T14:03:15.434Z,62.77
2022-12-01T14:05:42.241Z,67.40
2022-12-01T14:08:26.490Z,67.60
2022-12-01T14:11:18.532Z,68.10
2022-12-01T14:14:34.102Z,77.10
2022-12-01T14:17:04.975Z,75.90
2022-12-01T14:19:47.402Z,75.93
2022-12-01T14:22:37.736Z,70.10
2022-12-01T14:25:28.963Z,73.30
2022-12-01T14:28:02.723Z,82.33
2022-12-01T14:30:41.865Z,92.67
2022-12-01T14:33:42.555Z,79.03
2022-12-01T14:36:34.199Z,79.77
2022-12-01T14:39:10.540Z,89.03
2022-12-01T14:41:51.114Z,86.63
2022-12-01T14:44:42.075Z,82.70
2022-12-01T14:47:19.697Z,79.73
2022-12-01T14:50:27.894Z,82.40
2022-12-01T14:53:15.519Z,87.87
2022-12-01T14:55:50.319Z,81.53
2022-12-01T14:58:30.813Z,79.00
2022-12-01T15:01:06.484Z,71.43
2022-12-01T15:03:48.781Z,81.63
2022-12-01T15:06:24.598Z,70.33
2022-12-01T15:09:35.665Z,73.77
2022-12-01T15:12:07.670Z,67.73
2022-12-01T15:14:48.601Z,71.17
2022-12-01T15:17:32.496Z,74.77
2022-12-01T15:19:59.618Z,73.30
2022-12-01T15:22:31.362Z,64.30
2022-12-01T15:25:15.547Z,78.20
2022-12-01T15:27:45.654Z,65.37
2022-12-01T15:30:16.707Z,82.33
2022-12-01T15:32:45.781Z,73.80
2022-12-01T15:35:23.348Z,70.43
2022-12-01T15:37:51.469Z,69.67
2022-12-01T15:43:19.306Z,69.33
2022-12-01T15:46:17.692Z,72.23
2022-12-01T15:48:48.040Z,70.70
2022-12-01T15:51:27.638Z,70.67
2022-12-01T15:54:01.748Z,89.67
2022-12-01T15:56:54.910Z,71.60
2022-12-01T15:59:40.329Z,72.00
2022-12-01T16:02:19.348Z,67.43
2022-12-01T16:04:47.855Z,71.00
2022-12-01T16:07:15.301Z,69.33
2022-12-01T16:10:03.986Z,72.50
2022-12-01T16:12:36.786Z,79.60
2022-12-01T16:15:14.351Z,73.40
2022-12-01T16:17:53.808Z,65.63
2022-12-01T16:20:33.599Z,62.30
2022-12-01T16:23:09.163Z,75.00
2022-12-01T16:25:39.765Z,65.70
2022-12-01T16:28:15.852Z,65.27
2022-12-01T16:30:42.812Z,57.90
2022-12-01T16:33:21.798Z,58.73
2022-12-01T16:35:49.754Z,63.53
2022-12-01T16:38:22.418Z,69.07
2022-12-01T16:40:52.670Z,60.43
2022-12-01T16:43:22.672Z,64.00
2022-12-01T16:45:52.885Z,66.50
2022-12-01T16:48:20.455Z,58.20
2022-12-01T16:50:51.717Z,59.30
2022-12-01T16:53:20.932Z,59.10
2022-12-01T16:55:57.031Z,57.13
2022-12-01T16:58:24.271Z,61.63
2022-12-01T17:00:54.307Z,55.10
2022-12-01T17:03:24.727Z,54.37
2022-12-01T17:05:52.544Z,65.63
2022-12-01T17:08:19.902Z,53.13
2022-12-01T17:10:50.217Z,60.40
2022-12-01T17:13:18.509Z,65.43
2022-12-01T17:15:48.263Z,57.67
2022-12-01T17:18:17.298Z,63.53
2022-12-01T17:20:44.695Z,62.17
2022-12-01T17:23:11.880Z,60.73
2022-12-01T17:25:42.203Z,60.03
2022-12-01T17:28:09.075Z,61.80
2022-12-01T17:30:37.274Z,70.53
2022-12-01T17:33:04.557Z,68.43
2022-12-01T17:35:31.435Z,67.10
2022-12-01T17:37:58.321Z,57.80
2022-12-01T17:40:25.204Z,64.07
2022-12-01T17:42:52.103Z,59.23
2022-12-01T17:45:19.338Z,57.90
2022-12-01T17:47:46.527Z,62.60
2022-12-01T17:50:13.437Z,61.07
2022-12-01T17:52:40.339Z,58.70
2022-12-01T17:55:08.406Z,57.85
2022-12-01T17:57:35.447Z,57.70
2022-12-01T18:00:02.728Z,70.93
2022-12-01T18:02:35.579Z,59.90
2022-12-01T18:05:02.658Z,56.97
2022-12-01T18:07:29.718Z,60.07
2022-12-01T18:09:56.614Z,63.73
2022-12-01T18:12:23.534Z,59.93
2022-12-01T18:14:50.762Z,57.63
2022-12-01T18:17:17.955Z,64.60
2022-12-01T18:19:44.847Z,60.30
2022-12-01T18:22:11.757Z,64.20
2022-12-01T18:24:38.707Z,65.40
2022-12-01T18:27:05.648Z,58.83
2022-12-01T18:29:33.723Z,61.20
2022-12-01T18:32:01.192Z,55.63
2022-12-01T18:34:31.320Z,70.00
2022-12-01T18:36:58.293Z,68.43
2022-12-01T18:39:25.223Z,76.77
2022-12-01T18:41:52.135Z,70.63
2022-12-01T18:44:20.727Z,64.70
2022-12-01T18:46:47.686Z,71.43
2022-12-01T18:49:14.668Z,71.40
2022-12-01T18:51:41.987Z,69.73
2022-12-01T18:54:13.039Z,66.67
2022-12-01T18:56:40.046Z,61.73
2022-12-01T18:59:10.261Z,73.57
2022-12-01T19:01:40.731Z,72.50
2022-12-01T19:04:09.256Z,66.90
2022-12-01T19:06:39.030Z,75.43
2022-12-01T19:09:09.135Z,59.13
2022-12-01T19:11:37.692Z,78.53
2022-12-01T19:14:04.889Z,72.23
2022-12-01T19:16:32.152Z,74.77
2022-12-01T19:19:01.189Z,68.70
2022-12-01T19:21:28.080Z,72.73
2022-12-01T19:23:54.987Z,77.27
2022-12-01T19:26:23.044Z,68.87
2022-12-01T19:28:50.345Z,72.37
2022-12-01T19:31:23.721Z,69.30
2022-12-01T19:33:52.950Z,72.67
2022-12-01T19:36:23.332Z,71.83
2022-12-01T19:38:50.498Z,77.27
2022-12-01T19:41:20.364Z,67.30
2022-12-01T19:43:48.138Z,82.13
2022-12-01T19:46:19.149Z,76.90
2022-12-01T19:48:46.765Z,84.00
2022-12-01T19:51:26.590Z,82.27
2022-12-01T19:53:54.450Z,73.83
2022-12-01T19:56:22.212Z,84.43
2022-12-01T19:58:49.520Z,89.50
2022-12-01T20:01:18.488Z,78.03
2022-12-01T20:03:47.806Z,83.00
2022-12-01T20:06:18.571Z,76.77
2022-12-01T20:08:46.012Z,70.93
2022-12-01T20:11:14.410Z,70.73
2022-12-01T20:13:44.338Z,73.13
2022-12-01T20:16:15.020Z,86.87
2022-12-01T20:18:42.681Z,85.03
2022-12-01T20:21:22.487Z,78.13
2022-12-01T20:23:57.880Z,76.17
2022-12-01T20:26:32.159Z,77.93
2022-12-01T20:29:07.721Z,91.63
2022-12-01T20:31:35.420Z,82.73
2022-12-01T20:34:06.850Z,82.20
2022-12-01T20:36:34.738Z,82.27
2022-12-01T20:39:01.718Z,83.30
2022-12-01T20:41:28.624Z,74.90
2022-12-01T20:43:55.494Z,85.27
2022-12-01T20:46:22.427Z,92.30
2022-12-01T20:48:49.683Z,86.80
2022-12-01T20:51:16.650Z,80.80
2022-12-01T20:54:05.609Z,88.10
2022-12-01T20:56:32.175Z,87.93
2022-12-01T20:58:59.893Z,89.53
2022-12-01T21:01:27.394Z,92.93
2022-12-01T21:03:54.714Z,82.10
2022-12-01T21:06:22.163Z,78.93
2022-12-01T21:08:50.722Z,84.13
2022-12-01T21:11:47.099Z,89.57
2022-12-01T21:14:24.562Z,93.90
2022-12-01T21:16:55.687Z,87.57
2022-12-01T21:19:47.604Z,88.20
2022-12-01T21:22:14.700Z,75.73
2022-12-01T21:24:48.495Z,82.67
2022-12-01T21:27:17.906Z,91.90
2022-12-01T21:29:48.518Z,89.20
2022-12-01T21:32:23.314Z,101.13
2022-12-01T21:34:50.508Z,84.13
2022-12-01T21:37:22.743Z,79.10
2022-12-01T21:39:52.553Z,91.77
2022-12-01T21:42:23.157Z,87.43
2022-12-01T21:44:50.666Z,87.97
2022-12-01T21:47:27.333Z,81.73
2022-12-01T21:49:57.487Z,81.77
2022-12-01T21:52:44.153Z,75.87
2022-12-01T21:55:16.963Z,83.93
2022-12-01T21:57:48.414Z,74.57
2022-12-01T22:00:33.535Z,81.97
2022-12-01T22:03:09.426Z,89.97
2022-12-01T22:05:40.513Z,92.33
2022-12-01T22:08:13.554Z,83.87
2022-12-01T22:11:02.005Z,78.27
2022-12-01T22:13:42.694Z,87.83
2022-12-01T22:16:37.913Z,88.03
2022-12-01T22:19:16.943Z,84.53
2022-12-01T22:21:48.297Z,94.03
2022-12-01T22:24:41.076Z,80.70
2022-12-01T22:27:36.231Z,81.77
2022-12-01T22:30:19.649Z,81.27
2022-12-01T22:33:00.809Z,87.87
2022-12-01T22:35:43.766Z,73.53
2022-12-01T22:38:36.442Z,74.40
2022-12-01T22:41:11.967Z,78.97
2022-12-01T22:43:48.859Z,79.87
2022-12-01T22:46:33.244Z,76.17
2022-12-01T22:49:20.107Z,73.37
2022-12-01T22:51:53.094Z,75.80
2022-12-01T22:54:33.445Z,82.40
2022-12-01T22:57:24.784Z,77.07
2022-12-01T22:59:52.776Z,75.00
2022-12-01T23:02:23.927Z,75.27
2022-12-01T23:04:58.187Z,75.13
2022-12-01T23:07:37.220Z,70.20
2022-12-01T23:10:17.526Z,78.53
2022-12-01T23:12:47.055Z,77.10
2022-12-01T23:15:31.120Z,72.60
2022-12-01T23:18:22.617Z,75.40
2022-12-01T23:20:55.656Z,71.77
2022-12-01T23:23:34.843Z,73.40
2022-12-01T23:26:08.035Z,71.50
2022-12-01T23:28:39.073Z,76.97
2022-12-01T23:31:06.106Z,68.63
2022-12-01T23:33:34.976Z,85.70
2022-12-01T23:36:12.494Z,70.03
2022-12-01T23:38:45.984Z,71.50
2022-12-01T23:41:24.051Z,79.53
2022-12-01T23:43:53.948Z,71.57
2022-12-01T23:46:27.487Z,64.40
2022-12-01T23:49:03.505Z,69.17
2022-12-01T23:51:35.502Z,63.30
2022-12-01T23:54:22.098Z,63.73
2022-12-01T23:56:55.246Z,68.23
2022-12-01T23:59:22.614Z,64.77
